sensor_id;sensor_type;location;lat;lon;timestamp;pressure;altitude;pressure_sealevel;temperature;humidity
17072;BME280;7731;50.720;6.912;2023-11-21T00:02:22;99452.88;;;8.04;100.00
17072;BME280;7731;50.720;6.912;2023-11-21T00:04:52;99467.25;;;8.07;100.00
17072;BME280;7731;50.720;6.912;2023-11-21T00:07:27;99466.88;;;7.97;100.00
17072;BME280;7731;50.720;6.912;2023-11-21T00:09:58;99461.06;;;8.11;100.00
17072;BME280;7731;50.720;6.912;2023-11-21T00:12:28;99470.84;;;8.02;100.00
17072;BME280;7731;50.720;6.912;2023-11-21T00:14:59;99472.75;;;7.99;100.00
17072;BME280;7731;50.720;6.912;2023-11-21T00:17:29;99473.34;;;7.86;100.00
17072;BME280;7731;50.720;6.912;2023-11-21T00:20:00;99466.19;;;8.11;100.00
17072;BME280;7731;50.720;6.912;2023-11-21T00:22:36;99467.53;;;8.18;100.00
17072;BME280;7731;50.720;6.912;2023-11-21T00:25:09;99470.84;;;8.02;100.00
17072;BME280;7731;50.720;6.912;2023-11-21T00:27:41;99475.38;;;7.97;100.00
17072;BME280;7731;50.720;6.912;2023-11-21T00:30:14;99476.84;;;8.36;100.00
17072;BME280;7731;50.720;6.912;2023-11-21T00:32:44;99474.63;;;8.13;100.00
17072;BME280;7731;50.720;6.912;2023-11-21T00:35:14;99474.69;;;7.94;100.00
17072;BME280;7731;50.720;6.912;2023-11-21T00:37:47;99482.28;;;7.95;100.00
17072;BME280;7731;50.720;6.912;2023-11-21T00:40:18;99482.28;;;8.30;100.00
17072;BME280;7731;50.720;6.912;2023-11-21T00:42:49;99489.06;;;7.96;100.00
17072;BME280;7731;50.720;6.912;2023-11-21T00:45:20;99488.84;;;7.83;100.00
17072;BME280;7731;50.720;6.912;2023-11-21T00:47:50;99491.34;;;7.85;100.00
17072;BME280;7731;50.720;6.912;2023-11-21T00:50:21;99490.66;;;7.99;100.00
17072;BME280;7731;50.720;6.912;2023-11-21T00:52:54;99488.91;;;7.99;100.00
17072;BME280;7731;50.720;6.912;2023-11-21T00:55:25;99493.44;;;7.94;100.00
17072;BME280;7731;50.720;6.912;2023-11-21T00:57:55;99497.78;;;7.92;100.00
17072;BME280;7731;50.720;6.912;2023-11-21T01:00:25;99497.78;;;7.92;100.00
17072;BME280;7731;50.720;6.912;2023-11-21T01:02:56;99505.91;;;7.83;100.00
17072;BME280;7731;50.720;6.912;2023-11-21T01:05:26;99503.91;;;7.90;100.00
17072;BME280;7731;50.720;6.912;2023-11-21T01:07:59;99505.31;;;7.78;100.00
17072;BME280;7731;50.720;6.912;2023-11-21T01:10:29;99508.78;;;7.94;100.00
17072;BME280;7731;50.720;6.912;2023-11-21T01:13:02;99514.28;;;7.86;100.00
17072;BME280;7731;50.720;6.912;2023-11-21T01:15:34;99520.28;;;7.85;100.00
17072;BME280;7731;50.720;6.912;2023-11-21T01:18:05;99523.50;;;7.89;100.00
17072;BME280;7731;50.720;6.912;2023-11-21T01:20:36;99520.06;;;7.90;100.00
17072;BME280;7731;50.720;6.912;2023-11-21T01:23:11;99521.13;;;8.21;100.00
17072;BME280;7731;50.720;6.912;2023-11-21T01:25:47;99522.84;;;8.03;100.00
17072;BME280;7731;50.720;6.912;2023-11-21T01:28:19;99529.25;;;8.12;100.00
17072;BME280;7731;50.720;6.912;2023-11-21T01:30:50;99528.03;;;8.01;100.00
17072;BME280;7731;50.720;6.912;2023-11-21T01:33:25;99523.06;;;7.98;100.00
17072;BME280;7731;50.720;6.912;2023-11-21T01:35:55;99525.38;;;8.38;100.00
17072;BME280;7731;50.720;6.912;2023-11-21T01:38:29;99525.66;;;8.16;100.00
17072;BME280;7731;50.720;6.912;2023-11-21T01:40:59;99522.91;;;8.36;100.00
17072;BME280;7731;50.720;6.912;2023-11-21T01:43:31;99530.94;;;8.48;100.00
17072;BME280;7731;50.720;6.912;2023-11-21T01:46:02;99525.50;;;8.19;100.00
17072;BME280;7731;50.720;6.912;2023-11-21T01:48:33;99536.75;;;8.32;100.00
17072;BME280;7731;50.720;6.912;2023-11-21T01:51:06;99539.19;;;8.18;100.00
17072;BME280;7731;50.720;6.912;2023-11-21T01:53:39;99537.97;;;8.25;100.00
17072;BME280;7731;50.720;6.912;2023-11-21T01:56:11;99538.41;;;8.33;100.00
17072;BME280;7731;50.720;6.912;2023-11-21T01:58:42;99538.28;;;8.36;100.00
17072;BME280;7731;50.720;6.912;2023-11-21T02:01:14;99541.31;;;8.45;100.00
17072;BME280;7731;50.720;6.912;2023-11-21T02:03:47;99539.53;;;8.28;100.00
17072;BME280;7731;50.720;6.912;2023-11-21T02:06:21;99541.06;;;8.67;100.00
17072;BME280;7731;50.720;6.912;2023-11-21T02:08:55;99540.84;;;8.54;100.00
17072;BME280;7731;50.720;6.912;2023-11-21T02:11:27;99546.84;;;8.18;100.00
17072;BME280;7731;50.720;6.912;2023-11-21T02:13:59;99544.47;;;8.50;100.00
17072;BME280;7731;50.720;6.912;2023-11-21T02:16:30;99559.66;;;8.53;100.00
17072;BME280;7731;50.720;6.912;2023-11-21T02:19:02;99566.28;;;8.39;100.00
17072;BME280;7731;50.720;6.912;2023-11-21T02:21:33;99555.28;;;8.20;100.00
17072;BME280;7731;50.720;6.912;2023-11-21T02:24:09;99565.69;;;8.34;100.00
17072;BME280;7731;50.720;6.912;2023-11-21T02:26:39;99570.66;;;8.37;100.00
17072;BME280;7731;50.720;6.912;2023-11-21T02:29:09;99567.91;;;8.23;100.00
17072;BME280;7731;50.720;6.912;2023-11-21T02:31:40;99570.13;;;8.66;100.00
17072;BME280;7731;50.720;6.912;2023-11-21T02:34:16;99573.94;;;8.39;100.00
17072;BME280;7731;50.720;6.912;2023-11-21T02:36:47;99578.22;;;8.04;100.00
17072;BME280;7731;50.720;6.912;2023-11-21T02:39:22;99573.72;;;8.27;100.00
17072;BME280;7731;50.720;6.912;2023-11-21T02:41:53;99581.13;;;8.50;100.00
17072;BME280;7731;50.720;6.912;2023-11-21T02:44:23;99584.03;;;8.43;100.00
17072;BME280;7731;50.720;6.912;2023-11-21T02:46:54;99578.31;;;8.20;100.00
17072;BME280;7731;50.720;6.912;2023-11-21T02:49:27;99573.47;;;8.14;100.00
17072;BME280;7731;50.720;6.912;2023-11-21T02:51:58;99573.34;;;7.99;100.00
17072;BME280;7731;50.720;6.912;2023-11-21T02:54:31;99580.72;;;8.05;100.00
17072;BME280;7731;50.720;6.912;2023-11-21T02:57:04;99586.13;;;7.99;100.00
17072;BME280;7731;50.720;6.912;2023-11-21T02:59:35;99587.94;;;7.97;100.00
17072;BME280;7731;50.720;6.912;2023-11-21T03:02:06;99586.06;;;8.18;100.00
17072;BME280;7731;50.720;6.912;2023-11-21T03:04:39;99590.94;;;8.05;100.00
17072;BME280;7731;50.720;6.912;2023-11-21T03:07:11;99585.69;;;8.09;100.00
17072;BME280;7731;50.720;6.912;2023-11-21T03:09:43;99573.03;;;8.23;100.00
17072;BME280;7731;50.720;6.912;2023-11-21T03:12:14;99572.75;;;8.12;100.00
17072;BME280;7731;50.720;6.912;2023-11-21T03:14:45;99586.66;;;8.06;100.00
17072;BME280;7731;50.720;6.912;2023-11-21T03:17:15;99592.72;;;7.86;100.00
17072;BME280;7731;50.720;6.912;2023-11-21T03:19:45;99590.06;;;7.70;100.00
17072;BME280;7731;50.720;6.912;2023-11-21T03:22:16;99593.56;;;7.67;100.00
17072;BME280;7731;50.720;6.912;2023-11-21T03:24:49;99600.84;;;7.58;100.00
17072;BME280;7731;50.720;6.912;2023-11-21T03:27:19;99607.91;;;7.53;100.00
17072;BME280;7731;50.720;6.912;2023-11-21T03:29:50;99613.47;;;7.61;100.00
17072;BME280;7731;50.720;6.912;2023-11-21T03:32:22;99625.31;;;7.63;100.00
17072;BME280;7731;50.720;6.912;2023-11-21T03:34:57;99630.00;;;7.54;100.00
17072;BME280;7731;50.720;6.912;2023-11-21T03:37:30;99628.28;;;7.54;100.00
17072;BME280;7731;50.720;6.912;2023-11-21T03:40:07;99637.88;;;7.49;100.00
17072;BME280;7731;50.720;6.912;2023-11-21T03:42:40;99632.47;;;7.55;100.00
17072;BME280;7731;50.720;6.912;2023-11-21T03:45:11;99646.66;;;7.43;100.00
17072;BME280;7731;50.720;6.912;2023-11-21T03:47:42;99640.94;;;7.57;100.00
17072;BME280;7731;50.720;6.912;2023-11-21T03:50:12;99646.03;;;7.57;100.00
17072;BME280;7731;50.720;6.912;2023-11-21T03:52:43;99639.47;;;7.51;100.00
17072;BME280;7731;50.720;6.912;2023-11-21T03:55:16;99639.81;;;7.44;100.00
17072;BME280;7731;50.720;6.912;2023-11-21T03:57:46;99641.59;;;7.42;100.00
17072;BME280;7731;50.720;6.912;2023-11-21T04:00:17;99647.75;;;7.38;100.00
17072;BME280;7731;50.720;6.912;2023-11-21T04:02:48;99645.75;;;7.63;100.00
17072;BME280;7731;50.720;6.912;2023-11-21T04:05:21;99660.69;;;7.73;100.00
17072;BME280;7731;50.720;6.912;2023-11-21T04:07:55;99663.09;;;7.57;100.00
17072;BME280;7731;50.720;6.912;2023-11-21T04:10:28;99661.63;;;7.89;100.00
17072;BME280;7731;50.720;6.912;2023-11-21T04:12:58;99664.00;;;7.75;100.00
17072;BME280;7731;50.720;6.912;2023-11-21T04:15:28;99670.56;;;7.80;100.00
17072;BME280;7731;50.720;6.912;2023-11-21T04:17:59;99676.16;;;7.89;100.00
17072;BME280;7731;50.720;6.912;2023-11-21T04:20:30;99675.50;;;8.02;100.00
17072;BME280;7731;50.720;6.912;2023-11-21T04:23:00;99684.44;;;7.75;100.00
17072;BME280;7731;50.720;6.912;2023-11-21T04:25:35;99679.25;;;7.95;100.00
17072;BME280;7731;50.720;6.912;2023-11-21T04:28:05;99684.72;;;7.68;100.00
17072;BME280;7731;50.720;6.912;2023-11-21T04:30:36;99682.34;;;7.83;100.00
17072;BME280;7731;50.720;6.912;2023-11-21T04:33:06;99690.44;;;7.74;100.00
17072;BME280;7731;50.720;6.912;2023-11-21T04:35:40;99689.34;;;7.60;100.00
17072;BME280;7731;50.720;6.912;2023-11-21T04:38:10;99693.84;;;7.93;100.00
17072;BME280;7731;50.720;6.912;2023-11-21T04:40:43;99689.00;;;7.87;100.00
17072;BME280;7731;50.720;6.912;2023-11-21T04:43:16;99689.00;;;7.87;100.00
17072;BME280;7731;50.720;6.912;2023-11-21T04:45:46;99691.38;;;7.73;100.00
17072;BME280;7731;50.720;6.912;2023-11-21T04:48:18;99685.81;;;7.63;100.00
17072;BME280;7731;50.720;6.912;2023-11-21T04:50:49;99683.88;;;7.49;100.00
17072;BME280;7731;50.720;6.912;2023-11-21T04:53:20;99694.22;;;7.46;100.00
17072;BME280;7731;50.720;6.912;2023-11-21T04:55:53;99689.41;;;7.78;100.00
17072;BME280;7731;50.720;6.912;2023-11-21T04:58:23;99697.72;;;7.64;100.00
17072;BME280;7731;50.720;6.912;2023-11-21T05:00:53;99698.81;;;7.58;100.00
17072;BME280;7731;50.720;6.912;2023-11-21T05:03:24;99695.63;;;7.53;100.00
17072;BME280;7731;50.720;6.912;2023-11-21T05:05:54;99694.22;;;7.46;100.00
17072;BME280;7731;50.720;6.912;2023-11-21T05:08:24;99705.22;;;7.48;100.00
17072;BME280;7731;50.720;6.912;2023-11-21T05:10:58;99697.97;;;7.58;100.00
17072;BME280;7731;50.720;6.912;2023-11-21T05:13:28;99693.97;;;7.52;100.00
17072;BME280;7731;50.720;6.912;2023-11-21T05:15:58;99700.00;;;7.51;100.00
17072;BME280;7731;50.720;6.912;2023-11-21T05:18:33;99704.84;;;7.37;100.00
17072;BME280;7731;50.720;6.912;2023-11-21T05:21:04;99704.59;;;7.43;100.00
17072;BME280;7731;50.720;6.912;2023-11-21T05:23:37;99708.22;;;7.58;100.00
17072;BME280;7731;50.720;6.912;2023-11-21T05:26:10;99710.97;;;7.53;100.00
17072;BME280;7731;50.720;6.912;2023-11-21T05:28:43;99719.13;;;7.61;100.00
17072;BME280;7731;50.720;6.912;2023-11-21T05:31:13;99721.72;;;7.41;100.00
17072;BME280;7731;50.720;6.912;2023-11-21T05:33:44;99721.84;;;7.38;100.00
17072;BME280;7731;50.720;6.912;2023-11-21T05:36:14;99726.69;;;7.44;100.00
17072;BME280;7731;50.720;6.912;2023-11-21T05:38:45;99734.31;;;7.45;100.00
17072;BME280;7731;50.720;6.912;2023-11-21T05:41:18;99736.66;;;7.50;100.00
17072;BME280;7731;50.720;6.912;2023-11-21T05:43:48;99742.78;;;7.66;100.00
17072;BME280;7731;50.720;6.912;2023-11-21T05:46:19;99740.56;;;7.59;100.00
17072;BME280;7731;50.720;6.912;2023-11-21T05:48:49;99744.63;;;7.63;100.00
17072;BME280;7731;50.720;6.912;2023-11-21T05:51:19;99748.69;;;7.48;100.00
17072;BME280;7731;50.720;6.912;2023-11-21T05:53:50;99752.63;;;7.55;100.00
17072;BME280;7731;50.720;6.912;2023-11-21T05:56:25;99748.56;;;7.51;100.00
17072;BME280;7731;50.720;6.912;2023-11-21T05:58:56;99750.72;;;7.40;100.00
17072;BME280;7731;50.720;6.912;2023-11-21T06:01:29;99757.50;;;7.41;100.00
17072;BME280;7731;50.720;6.912;2023-11-21T06:03:59;99763.88;;;7.51;100.00
17072;BME280;7731;50.720;6.912;2023-11-21T06:06:31;99772.91;;;7.39;100.00
17072;BME280;7731;50.720;6.912;2023-11-21T06:09:02;99774.72;;;7.36;100.00
17072;BME280;7731;50.720;6.912;2023-11-21T06:11:35;99775.66;;;7.35;100.00
17072;BME280;7731;50.720;6.912;2023-11-21T06:14:06;99782.34;;;7.37;100.00
17072;BME280;7731;50.720;6.912;2023-11-21T06:16:38;99777.69;;;7.47;100.00
17072;BME280;7731;50.720;6.912;2023-11-21T06:19:09;99779.09;;;7.54;100.00
17072;BME280;7731;50.720;6.912;2023-11-21T06:21:38;99775.22;;;7.64;100.00
17072;BME280;7731;50.720;6.912;2023-11-21T06:24:08;99777.16;;;7.59;100.00
17072;BME280;7731;50.720;6.912;2023-11-21T06:26:41;99786.25;;;7.66;100.00
17072;BME280;7731;50.720;6.912;2023-11-21T06:29:11;99787.22;;;7.83;100.00
17072;BME280;7731;50.720;6.912;2023-11-21T06:31:42;99789.88;;;7.61;100.00
17072;BME280;7731;50.720;6.912;2023-11-21T06:34:14;99802.84;;;7.56;100.00
17072;BME280;7731;50.720;6.912;2023-11-21T06:36:44;99803.16;;;7.69;100.00
17072;BME280;7731;50.720;6.912;2023-11-21T06:39:15;99800.88;;;7.63;100.00
17072;BME280;7731;50.720;6.912;2023-11-21T06:41:48;99811.41;;;7.55;100.00
17072;BME280;7731;50.720;6.912;2023-11-21T06:44:18;99823.50;;;7.51;100.00
17072;BME280;7731;50.720;6.912;2023-11-21T06:46:49;99811.75;;;7.68;100.00
17072;BME280;7731;50.720;6.912;2023-11-21T06:49:19;99819.88;;;7.57;100.00
17072;BME280;7731;50.720;6.912;2023-11-21T06:51:50;99821.50;;;7.58;100.00
17072;BME280;7731;50.720;6.912;2023-11-21T06:54:22;99825.25;;;7.51;100.00
17072;BME280;7731;50.720;6.912;2023-11-21T06:56:56;99818.19;;;7.56;100.00
17072;BME280;7731;50.720;6.912;2023-11-21T06:59:29;99829.31;;;7.55;100.00
17072;BME280;7731;50.720;6.912;2023-11-21T07:02:01;99839.03;;;7.67;100.00
17072;BME280;7731;50.720;6.912;2023-11-21T07:04:34;99833.66;;;7.74;100.00
17072;BME280;7731;50.720;6.912;2023-11-21T07:07:06;99843.00;;;7.75;100.00
17072;BME280;7731;50.720;6.912;2023-11-21T07:09:36;99847.84;;;7.81;100.00
17072;BME280;7731;50.720;6.912;2023-11-21T07:12:10;99850.03;;;7.69;100.00
17072;BME280;7731;50.720;6.912;2023-11-21T07:14:41;99846.69;;;7.67;100.00
17072;BME280;7731;50.720;6.912;2023-11-21T07:17:12;99853.47;;;7.68;100.00
17072;BME280;7731;50.720;6.912;2023-11-21T07:19:40;99860.78;;;7.57;100.00
17072;BME280;7731;50.720;6.912;2023-11-21T07:22:10;99866.88;;;7.74;100.00
17072;BME280;7731;50.720;6.912;2023-11-21T07:24:43;99850.06;;;7.89;100.00
17072;BME280;7731;50.720;6.912;2023-11-21T07:27:16;99866.06;;;7.73;100.00
17072;BME280;7731;50.720;6.912;2023-11-21T07:29:48;99854.50;;;7.85;100.00
17072;BME280;7731;50.720;6.912;2023-11-21T07:32:19;99866.97;;;8.12;100.00
17072;BME280;7731;50.720;6.912;2023-11-21T07:34:49;99872.22;;;8.09;100.00
17072;BME280;7731;50.720;6.912;2023-11-21T07:37:20;99882.72;;;8.02;100.00
17072;BME280;7731;50.720;6.912;2023-11-21T07:39:50;99895.94;;;7.73;100.00
17072;BME280;7731;50.720;6.912;2023-11-21T07:42:26;99901.03;;;7.73;100.00
17072;BME280;7731;50.720;6.912;2023-11-21T07:44:56;99916.13;;;7.79;100.00
17072;BME280;7731;50.720;6.912;2023-11-21T07:47:30;99912.34;;;7.67;100.00
17072;BME280;7731;50.720;6.912;2023-11-21T07:50:04;99917.41;;;7.68;100.00
17072;BME280;7731;50.720;6.912;2023-11-21T07:52:35;99905.97;;;8.17;100.00
17072;BME280;7731;50.720;6.912;2023-11-21T07:55:06;99914.34;;;7.81;100.00
17072;BME280;7731;50.720;6.912;2023-11-21T07:57:41;99918.09;;;7.72;100.00
17072;BME280;7731;50.720;6.912;2023-11-21T08:00:13;99921.88;;;7.63;100.00
17072;BME280;7731;50.720;6.912;2023-11-21T08:02:44;99925.38;;;7.81;100.00
17072;BME280;7731;50.720;6.912;2023-11-21T08:05:14;99920.22;;;7.62;100.00
17072;BME280;7731;50.720;6.912;2023-11-21T08:07:58;99928.16;;;7.97;100.00
17072;BME280;7731;50.720;6.912;2023-11-21T08:10:28;99929.69;;;8.62;100.00
17072;BME280;7731;50.720;6.912;2023-11-21T08:13:01;99923.72;;;8.61;100.00
17072;BME280;7731;50.720;6.912;2023-11-21T08:15:34;99936.19;;;8.09;100.00
17072;BME280;7731;50.720;6.912;2023-11-21T08:18:06;99928.91;;;7.99;100.00
17072;BME280;7731;50.720;6.912;2023-11-21T08:20:38;99939.16;;;7.99;100.00
17072;BME280;7731;50.720;6.912;2023-11-21T08:23:08;99941.69;;;7.99;100.00
17072;BME280;7731;50.720;6.912;2023-11-21T08:25:39;99945.34;;;7.94;100.00
17072;BME280;7731;50.720;6.912;2023-11-21T08:28:13;99952.81;;;7.98;100.00
17072;BME280;7731;50.720;6.912;2023-11-21T08:30:44;99957.81;;;8.01;100.00
17072;BME280;7731;50.720;6.912;2023-11-21T08:33:14;99963.38;;;8.11;100.00
17072;BME280;7731;50.720;6.912;2023-11-21T08:35:45;99967.84;;;8.27;100.00
17072;BME280;7731;50.720;6.912;2023-11-21T08:38:18;99966.88;;;8.29;100.00
17072;BME280;7731;50.720;6.912;2023-11-21T08:40:48;99967.00;;;8.26;100.00
17072;BME280;7731;50.720;6.912;2023-11-21T08:43:21;99971.88;;;8.12;100.00
17072;BME280;7731;50.720;6.912;2023-11-21T08:45:52;99970.22;;;8.31;100.00
17072;BME280;7731;50.720;6.912;2023-11-21T08:48:23;99968.97;;;8.40;100.00
17072;BME280;7731;50.720;6.912;2023-11-21T08:50:57;99981.72;;;8.41;100.00
17072;BME280;7731;50.720;6.912;2023-11-21T08:53:28;99979.75;;;8.28;100.00
17072;BME280;7731;50.720;6.912;2023-11-21T08:55:58;99987.22;;;8.32;100.00
17072;BME280;7731;50.720;6.912;2023-11-21T08:58:31;99986.72;;;8.24;100.00
17072;BME280;7731;50.720;6.912;2023-11-21T09:01:05;99987.75;;;8.40;100.00
17072;BME280;7731;50.720;6.912;2023-11-21T09:03:36;99987.19;;;8.73;100.00
17072;BME280;7731;50.720;6.912;2023-11-21T09:06:09;99988.03;;;8.74;100.00
17072;BME280;7731;50.720;6.912;2023-11-21T09:08:39;99992.16;;;8.57;100.00
17072;BME280;7731;50.720;6.912;2023-11-21T09:11:10;99987.47;;;8.67;100.00
17072;BME280;7731;50.720;6.912;2023-11-21T09:13:43;99997.03;;;9.21;100.00
17072;BME280;7731;50.720;6.912;2023-11-21T09:16:14;100003.50;;;8.52;100.00
17072;BME280;7731;50.720;6.912;2023-11-21T09:18:47;100001.75;;;8.92;100.00
17072;BME280;7731;50.720;6.912;2023-11-21T09:21:21;100004.75;;;9.02;100.00
17072;BME280;7731;50.720;6.912;2023-11-21T09:23:52;100000.09;;;8.91;100.00
17072;BME280;7731;50.720;6.912;2023-11-21T09:26:57;99993.00;;;9.15;100.00
17072;BME280;7731;50.720;6.912;2023-11-21T09:29:33;100006.53;;;9.19;100.00
17072;BME280;7731;50.720;6.912;2023-11-21T09:32:05;100008.84;;;9.42;100.00
17072;BME280;7731;50.720;6.912;2023-11-21T09:34:38;100018.28;;;9.78;100.00
17072;BME280;7731;50.720;6.912;2023-11-21T09:37:09;100021.53;;;9.45;100.00
17072;BME280;7731;50.720;6.912;2023-11-21T09:39:40;100023.81;;;9.52;100.00
17072;BME280;7731;50.720;6.912;2023-11-21T09:42:15;100029.59;;;9.74;100.00
17072;BME280;7731;50.720;6.912;2023-11-21T09:44:58;100028.16;;;9.69;100.00
17072;BME280;7731;50.720;6.912;2023-11-21T09:47:38;100031.22;;;9.94;100.00
17072;BME280;7731;50.720;6.912;2023-11-21T09:50:09;100033.22;;;9.70;100.00
17072;BME280;7731;50.720;6.912;2023-11-21T09:52:55;100029.72;;;9.35;100.00
17072;BME280;7731;50.720;6.912;2023-11-21T09:55:28;100032.69;;;9.81;100.00
17072;BME280;7731;50.720;6.912;2023-11-21T09:58:04;100031.13;;;9.78;100.00
17072;BME280;7731;50.720;6.912;2023-11-21T10:00:41;100039.72;;;9.77;100.00
17072;BME280;7731;50.720;6.912;2023-11-21T10:03:12;100032.28;;;9.54;100.00
17072;BME280;7731;50.720;6.912;2023-11-21T10:05:44;100039.88;;;9.19;100.00
17072;BME280;7731;50.720;6.912;2023-11-21T10:08:17;100040.38;;;9.44;100.00
17072;BME280;7731;50.720;6.912;2023-11-21T10:10:53;100037.06;;;9.42;100.00
17072;BME280;7731;50.720;6.912;2023-11-21T10:13:24;100039.47;;;9.64;100.00
17072;BME280;7731;50.720;6.912;2023-11-21T10:16:00;100035.47;;;9.76;100.00
17072;BME280;7731;50.720;6.912;2023-11-21T10:18:34;100039.56;;;9.98;100.00
17072;BME280;7731;50.720;6.912;2023-11-21T10:21:07;100041.41;;;9.59;100.00
17072;BME280;7731;50.720;6.912;2023-11-21T10:23:39;100042.25;;;9.60;100.00
17072;BME280;7731;50.720;6.912;2023-11-21T10:26:13;100038.16;;;9.56;100.00
17072;BME280;7731;50.720;6.912;2023-11-21T10:28:58;100040.38;;;9.63;100.00
17072;BME280;7731;50.720;6.912;2023-11-21T10:31:32;100054.13;;;9.43;100.00
17072;BME280;7731;50.720;6.912;2023-11-21T10:34:14;100049.56;;;9.31;100.00
17072;BME280;7731;50.720;6.912;2023-11-21T10:36:47;100053.03;;;9.11;100.00
17072;BME280;7731;50.720;6.912;2023-11-21T10:39:19;100053.56;;;9.18;100.00
17072;BME280;7731;50.720;6.912;2023-11-21T10:41:51;100052.53;;;9.77;100.00
17072;BME280;7731;50.720;6.912;2023-11-21T10:44:22;100051.00;;;9.37;100.00
17072;BME280;7731;50.720;6.912;2023-11-21T10:47:04;100059.09;;;9.27;100.00
17072;BME280;7731;50.720;6.912;2023-11-21T10:49:36;100058.00;;;9.33;100.00
17072;BME280;7731;50.720;6.912;2023-11-21T10:52:13;100048.56;;;9.15;100.00
17072;BME280;7731;50.720;6.912;2023-11-21T10:54:46;100048.91;;;9.26;100.00
17072;BME280;7731;50.720;6.912;2023-11-21T10:57:20;100054.59;;;9.14;100.00
17072;BME280;7731;50.720;6.912;2023-11-21T10:59:55;100055.09;;;9.41;100.00
17072;BME280;7731;50.720;6.912;2023-11-21T11:02:27;100059.44;;;9.20;100.00
17072;BME280;7731;50.720;6.912;2023-11-21T11:05:01;100064.22;;;9.27;100.00
17072;BME280;7731;50.720;6.912;2023-11-21T11:07:35;100063.75;;;9.38;100.00
17072;BME280;7731;50.720;6.912;2023-11-21T11:10:09;100060.50;;;9.35;100.00
17072;BME280;7731;50.720;6.912;2023-11-21T11:12:46;100072.16;;;9.42;100.00
17072;BME280;7731;50.720;6.912;2023-11-21T11:15:17;100070.22;;;9.83;100.00
17072;BME280;7731;50.720;6.912;2023-11-21T11:17:52;100073.31;;;9.54;100.00
17072;BME280;7731;50.720;6.912;2023-11-21T11:20:34;100069.47;;;9.81;100.00
17072;BME280;7731;50.720;6.912;2023-11-21T11:23:32;100071.59;;;10.08;100.00
17072;BME280;7731;50.720;6.912;2023-11-21T11:26:21;100069.13;;;9.70;100.00
17072;BME280;7731;50.720;6.912;2023-11-21T11:29:10;100071.28;;;9.41;100.00
17072;BME280;7731;50.720;6.912;2023-11-21T11:32:03;100071.78;;;9.50;100.00
17072;BME280;7731;50.720;6.912;2023-11-21T11:34:47;100075.84;;;9.73;100.00
17072;BME280;7731;50.720;6.912;2023-11-21T11:37:20;100076.72;;;9.91;100.00
17072;BME280;7731;50.720;6.912;2023-11-21T11:39:51;100072.78;;;9.83;100.00
17072;BME280;7731;50.720;6.912;2023-11-21T11:42:22;100075.03;;;9.72;100.00
17072;BME280;7731;50.720;6.912;2023-11-21T11:44:53;100077.44;;;9.75;100.00
17072;BME280;7731;50.720;6.912;2023-11-21T11:47:27;100079.19;;;9.56;100.00
17072;BME280;7731;50.720;6.912;2023-11-21T11:50:07;100082.66;;;9.55;100.00
17072;BME280;7731;50.720;6.912;2023-11-21T11:52:42;100079.19;;;9.56;100.00
17072;BME280;7731;50.720;6.912;2023-11-21T11:55:15;100086.94;;;9.73;100.00
17072;BME280;7731;50.720;6.912;2023-11-21T11:57:47;100086.53;;;9.63;100.00
17072;BME280;7731;50.720;6.912;2023-11-21T12:00:20;100090.78;;;9.45;100.00
17072;BME280;7731;50.720;6.912;2023-11-21T12:02:54;100094.06;;;9.49;100.00
17072;BME280;7731;50.720;6.912;2023-11-21T12:05:32;100098.91;;;9.55;100.00
17072;BME280;7731;50.720;6.912;2023-11-21T12:08:05;100091.53;;;9.47;100.00
17072;BME280;7731;50.720;6.912;2023-11-21T12:10:38;100090.63;;;9.48;100.00
17072;BME280;7731;50.720;6.912;2023-11-21T12:13:11;100096.25;;;9.57;100.00
17072;BME280;7731;50.720;6.912;2023-11-21T12:15:42;100094.41;;;9.78;100.00
17072;BME280;7731;50.720;6.912;2023-11-21T12:18:13;100097.56;;;9.65;100.00
17072;BME280;7731;50.720;6.912;2023-11-21T12:20:46;100095.84;;;9.47;100.00
17072;BME280;7731;50.720;6.912;2023-11-21T12:23:18;100096.72;;;9.65;100.00
17072;BME280;7731;50.720;6.912;2023-11-21T12:25:49;100098.34;;;9.29;100.00
17072;BME280;7731;50.720;6.912;2023-11-21T12:28:19;100097.47;;;9.86;100.00
17072;BME280;7731;50.720;6.912;2023-11-21T12:30:50;100101.41;;;9.57;100.00
17072;BME280;7731;50.720;6.912;2023-11-21T12:33:34;100105.13;;;9.50;100.00
17072;BME280;7731;50.720;6.912;2023-11-21T12:36:08;100105.94;;;9.50;100.00
17072;BME280;7731;50.720;6.912;2023-11-21T12:38:39;100114.81;;;9.62;100.00
17072;BME280;7731;50.720;6.912;2023-11-21T12:41:10;100104.88;;;9.73;100.00
17072;BME280;7731;50.720;6.912;2023-11-21T12:43:40;100119.94;;;9.24;100.00
17072;BME280;7731;50.720;6.912;2023-11-21T12:46:11;100109.00;;;9.58;100.00
17072;BME280;7731;50.720;6.912;2023-11-21T12:48:45;100113.59;;;9.71;100.00
17072;BME280;7731;50.720;6.912;2023-11-21T12:51:21;100117.72;;;9.73;100.00
17072;BME280;7731;50.720;6.912;2023-11-21T12:53:52;100120.88;;;9.97;100.00
17072;BME280;7731;50.720;6.912;2023-11-21T12:56:23;100117.78;;;9.91;100.00
17072;BME280;7731;50.720;6.912;2023-11-21T12:58:54;100124.47;;;9.93;100.00
17072;BME280;7731;50.720;6.912;2023-11-21T13:01:26;100124.63;;;9.90;100.00
17072;BME280;7731;50.720;6.912;2023-11-21T13:03:58;100128.75;;;9.75;100.00
17072;BME280;7731;50.720;6.912;2023-11-21T13:06:32;100123.97;;;9.68;100.00
17072;BME280;7731;50.720;6.912;2023-11-21T13:09:09;100129.03;;;9.69;100.00
17072;BME280;7731;50.720;6.912;2023-11-21T13:11:43;100126.47;;;9.69;100.00
17072;BME280;7731;50.720;6.912;2023-11-21T13:14:14;100129.19;;;10.02;100.00
17072;BME280;7731;50.720;6.912;2023-11-21T13:16:45;100126.97;;;9.95;100.00
17072;BME280;7731;50.720;6.912;2023-11-21T13:19:16;100126.66;;;10.20;100.00
17072;BME280;7731;50.720;6.912;2023-11-21T13:21:52;100135.59;;;9.94;100.00
17072;BME280;7731;50.720;6.912;2023-11-21T13:24:22;100134.69;;;9.95;100.00
17072;BME280;7731;50.720;6.912;2023-11-21T13:26:53;100136.53;;;10.10;100.00
17072;BME280;7731;50.720;6.912;2023-11-21T13:29:25;100141.66;;;10.10;100.00
17072;BME280;7731;50.720;6.912;2023-11-21T13:31:56;100145.09;;;9.92;100.00
17072;BME280;7731;50.720;6.912;2023-11-21T13:34:28;100145.59;;;9.81;100.00
17072;BME280;7731;50.720;6.912;2023-11-21T13:37:03;100147.72;;;10.09;100.00